sensor_id;sensor_type;location;lat;lon;timestamp;pressure;altitude;pressure_sealevel;temperature;humidity
72370;BME280;60343;-32.030;115.880;2022-09-12T00:01:45;101147.16;;;20.07;55.14
72370;BME280;60343;-32.030;115.880;2022-09-12T00:04:13;101144.59;;;20.30;54.17
72370;BME280;60343;-32.030;115.880;2022-09-12T00:06:53;101143.34;;;20.51;52.11
72370;BME280;60343;-32.030;115.880;2022-09-12T00:09:21;101139.00;;;20.62;51.96
72370;BME280;60343;-32.030;115.880;2022-09-12T00:11:50;101137.28;;;20.79;52.16
72370;BME280;60343;-32.030;115.880;2022-09-12T00:14:19;101134.16;;;21.05;52.20
72370;BME280;60343;-32.030;115.880;2022-09-12T00:16:47;101132.59;;;21.27;51.39
72370;BME280;60343;-32.030;115.880;2022-09-12T00:19:18;101132.84;;;21.37;50.53
72370;BME280;60343;-32.030;115.880;2022-09-12T00:21:57;101121.00;;;21.32;50.92
72370;BME280;60343;-32.030;115.880;2022-09-12T00:24:25;101130.22;;;21.66;50.05
72370;BME280;60343;-32.030;115.880;2022-09-12T00:26:53;101133.31;;;21.81;48.88
72370;BME280;60343;-32.030;115.880;2022-09-12T00:29:24;101129.06;;;21.97;49.04
72370;BME280;60343;-32.030;115.880;2022-09-12T00:31:52;101129.72;;;22.15;47.61
72370;BME280;60343;-32.030;115.880;2022-09-12T00:34:20;101121.22;;;22.40;47.54
72370;BME280;60343;-32.030;115.880;2022-09-12T00:36:54;101122.66;;;22.43;47.46
72370;BME280;60343;-32.030;115.880;2022-09-12T00:39:22;101120.31;;;22.63;46.30
72370;BME280;60343;-32.030;115.880;2022-09-12T00:41:50;101120.16;;;22.69;47.42
72370;BME280;60343;-32.030;115.880;2022-09-12T00:44:45;101131.16;;;22.86;46.68
72370;BME280;60343;-32.030;115.880;2022-09-12T00:47:21;101129.38;;;23.08;46.73
72370;BME280;60343;-32.030;115.880;2022-09-12T00:49:54;101125.97;;;23.01;45.79
72370;BME280;60343;-32.030;115.880;2022-09-12T00:52:34;101125.38;;;23.16;45.28
72370;BME280;60343;-32.030;115.880;2022-09-12T00:55:08;101116.97;;;23.18;46.57
72370;BME280;60343;-32.030;115.880;2022-09-12T00:57:49;101118.28;;;23.32;45.54
72370;BME280;60343;-32.030;115.880;2022-09-12T01:00:20;101106.34;;;23.38;45.75
72370;BME280;60343;-32.030;115.880;2022-09-12T01:02:54;101108.25;;;23.37;45.87
72370;BME280;60343;-32.030;115.880;2022-09-12T01:05:26;101103.13;;;23.41;47.17
72370;BME280;60343;-32.030;115.880;2022-09-12T01:08:02;101096.09;;;23.45;47.75
72370;BME280;60343;-32.030;115.880;2022-09-12T01:10:30;101095.63;;;23.48;47.17
72370;BME280;60343;-32.030;115.880;2022-09-12T01:13:03;101091.44;;;23.62;47.31
72370;BME280;60343;-32.030;115.880;2022-09-12T01:15:32;101097.06;;;23.72;46.77
72370;BME280;60343;-32.030;115.880;2022-09-12T01:18:09;101092.22;;;23.79;46.16
72370;BME280;60343;-32.030;115.880;2022-09-12T01:20:50;101087.00;;;24.00;46.46
72370;BME280;60343;-32.030;115.880;2022-09-12T01:23:44;101083.00;;;23.85;45.84
72370;BME280;60343;-32.030;115.880;2022-09-12T01:29:29;101085.81;;;23.90;46.75
72370;BME280;60343;-32.030;115.880;2022-09-12T01:32:12;101084.28;;;24.00;48.16
72370;BME280;60343;-32.030;115.880;2022-09-12T01:34:48;101083.00;;;24.24;45.92
72370;BME280;60343;-32.030;115.880;2022-09-12T01:37:25;101082.69;;;24.47;46.59
72370;BME280;60343;-32.030;115.880;2022-09-12T01:40:02;101083.81;;;24.51;48.38
72370;BME280;60343;-32.030;115.880;2022-09-12T01:42:33;101082.38;;;24.70;48.40
72370;BME280;60343;-32.030;115.880;2022-09-12T01:45:10;101075.91;;;24.82;48.49
72370;BME280;60343;-32.030;115.880;2022-09-12T01:47:51;101068.19;;;25.05;47.86
72370;BME280;60343;-32.030;115.880;2022-09-12T01:50:27;101070.00;;;24.90;46.87
72370;BME280;60343;-32.030;115.880;2022-09-12T01:52:58;101055.53;;;24.94;46.58
72370;BME280;60343;-32.030;115.880;2022-09-12T01:55:30;101046.59;;;25.09;45.22
72370;BME280;60343;-32.030;115.880;2022-09-12T01:58:04;101049.53;;;25.34;44.53
72370;BME280;60343;-32.030;115.880;2022-09-12T02:00:33;101051.31;;;25.55;44.64
72370;BME280;60343;-32.030;115.880;2022-09-12T02:03:09;101054.41;;;25.69;43.16
72370;BME280;60343;-32.030;115.880;2022-09-12T02:05:44;101057.72;;;25.76;43.34
72370;BME280;60343;-32.030;115.880;2022-09-12T02:08:16;101046.84;;;25.96;42.32
72370;BME280;60343;-32.030;115.880;2022-09-12T02:10:51;101041.72;;;26.20;42.05
72370;BME280;60343;-32.030;115.880;2022-09-12T02:13:22;101046.63;;;26.08;42.49
72370;BME280;60343;-32.030;115.880;2022-09-12T02:15:54;101049.44;;;26.23;41.70
72370;BME280;60343;-32.030;115.880;2022-09-12T02:18:33;101044.91;;;25.92;41.63
72370;BME280;60343;-32.030;115.880;2022-09-12T02:21:02;101043.81;;;25.88;42.39
72370;BME280;60343;-32.030;115.880;2022-09-12T02:23:33;101042.72;;;25.94;41.49
72370;BME280;60343;-32.030;115.880;2022-09-12T02:26:07;101042.25;;;26.17;40.59
72370;BME280;60343;-32.030;115.880;2022-09-12T02:28:40;101035.78;;;26.48;40.46
72370;BME280;60343;-32.030;115.880;2022-09-12T02:31:15;101034.72;;;26.70;41.10
72370;BME280;60343;-32.030;115.880;2022-09-12T02:34:05;101025.09;;;27.03;39.92
72370;BME280;60343;-32.030;115.880;2022-09-12T02:36:41;101022.56;;;27.31;39.02
72370;BME280;60343;-32.030;115.880;2022-09-12T02:39:13;101017.63;;;27.33;37.80
72370;BME280;60343;-32.030;115.880;2022-09-12T02:41:41;101011.56;;;27.37;38.31
72370;BME280;60343;-32.030;115.880;2022-09-12T02:44:09;101006.63;;;27.44;36.90
72370;BME280;60343;-32.030;115.880;2022-09-12T02:46:40;101009.69;;;27.12;36.31
72370;BME280;60343;-32.030;115.880;2022-09-12T02:49:16;101006.69;;;27.08;36.44
72370;BME280;60343;-32.030;115.880;2022-09-12T02:51:45;101004.75;;;27.19;37.33
72370;BME280;60343;-32.030;115.880;2022-09-12T02:54:15;101004.75;;;27.14;35.33
72370;BME280;60343;-32.030;115.880;2022-09-12T02:56:45;101003.06;;;27.28;38.06
72370;BME280;60343;-32.030;115.880;2022-09-12T02:59:16;100998.91;;;27.46;39.47
72370;BME280;60343;-32.030;115.880;2022-09-12T03:01:58;100990.75;;;27.10;41.90
72370;BME280;60343;-32.030;115.880;2022-09-12T03:04:55;100992.09;;;26.52;42.91
72370;BME280;60343;-32.030;115.880;2022-09-12T03:07:37;100987.72;;;26.51;44.60
72370;BME280;60343;-32.030;115.880;2022-09-12T03:10:13;100985.22;;;26.24;44.75
72370;BME280;60343;-32.030;115.880;2022-09-12T03:12:50;100977.00;;;26.29;45.04
72370;BME280;60343;-32.030;115.880;2022-09-12T03:15:30;100974.28;;;26.50;44.86
72370;BME280;60343;-32.030;115.880;2022-09-12T03:18:19;100980.84;;;26.28;44.37
72370;BME280;60343;-32.030;115.880;2022-09-12T03:21:01;100973.63;;;26.12;45.20
72370;BME280;60343;-32.030;115.880;2022-09-12T03:23:33;100979.31;;;25.75;47.13
72370;BME280;60343;-32.030;115.880;2022-09-12T03:26:08;100978.50;;;25.85;47.20
72370;BME280;60343;-32.030;115.880;2022-09-12T03:28:42;100971.34;;;25.74;47.93
72370;BME280;60343;-32.030;115.880;2022-09-12T03:31:14;100969.69;;;25.78;46.25
72370;BME280;60343;-32.030;115.880;2022-09-12T03:33:42;100954.63;;;25.75;47.63
72370;BME280;60343;-32.030;115.880;2022-09-12T03:36:21;100951.09;;;25.90;46.34
72370;BME280;60343;-32.030;115.880;2022-09-12T03:38:50;100948.78;;;25.61;45.70
72370;BME280;60343;-32.030;115.880;2022-09-12T03:41:19;100954.75;;;25.48;46.76
72370;BME280;60343;-32.030;115.880;2022-09-12T03:43:47;100954.19;;;25.51;47.38
72370;BME280;60343;-32.030;115.880;2022-09-12T03:46:15;100950.44;;;25.62;47.36
72370;BME280;60343;-32.030;115.880;2022-09-12T03:48:43;100936.72;;;25.57;46.69
72370;BME280;60343;-32.030;115.880;2022-09-12T03:51:17;100935.91;;;25.62;47.34
72370;BME280;60343;-32.030;115.880;2022-09-12T03:53:45;100931.84;;;25.70;47.78
72370;BME280;60343;-32.030;115.880;2022-09-12T03:56:14;100926.94;;;25.97;48.61
72370;BME280;60343;-32.030;115.880;2022-09-12T03:58:45;100927.53;;;26.04;47.86
72370;BME280;60343;-32.030;115.880;2022-09-12T04:01:15;100921.53;;;26.22;46.86
72370;BME280;60343;-32.030;115.880;2022-09-12T04:03:44;100917.97;;;26.47;45.46
72370;BME280;60343;-32.030;115.880;2022-09-12T04:06:20;100911.13;;;26.44;46.79
72370;BME280;60343;-32.030;115.880;2022-09-12T04:08:59;100909.19;;;26.40;47.08
72370;BME280;60343;-32.030;115.880;2022-09-12T04:11:29;100906.09;;;26.06;46.13
72370;BME280;60343;-32.030;115.880;2022-09-12T04:13:57;100899.50;;;25.92;47.26
72370;BME280;60343;-32.030;115.880;2022-09-12T04:16:25;100903.97;;;25.41;48.42
72370;BME280;60343;-32.030;115.880;2022-09-12T04:18:54;100905.72;;;25.00;47.70
72370;BME280;60343;-32.030;115.880;2022-09-12T04:21:28;100902.47;;;24.71;49.21
72370;BME280;60343;-32.030;115.880;2022-09-12T04:23:56;100896.44;;;24.64;49.39
72370;BME280;60343;-32.030;115.880;2022-09-12T04:26:24;100884.66;;;24.63;48.95
72370;BME280;60343;-32.030;115.880;2022-09-12T04:28:54;100887.16;;;24.75;49.93
72370;BME280;60343;-32.030;115.880;2022-09-12T04:31:22;100889.63;;;24.71;49.05
72370;BME280;60343;-32.030;115.880;2022-09-12T04:33:54;100888.53;;;24.72;48.64
72370;BME280;60343;-32.030;115.880;2022-09-12T04:36:30;100878.41;;;24.36;50.27
72370;BME280;60343;-32.030;115.880;2022-09-12T04:38:58;100873.91;;;23.93;50.36
72370;BME280;60343;-32.030;115.880;2022-09-12T04:41:28;100880.41;;;24.14;50.76
72370;BME280;60343;-32.030;115.880;2022-09-12T04:43:59;100879.00;;;24.38;49.60
72370;BME280;60343;-32.030;115.880;2022-09-12T04:46:28;100868.66;;;24.50;49.49
72370;BME280;60343;-32.030;115.880;2022-09-12T04:48:57;100864.53;;;24.85;49.70
72370;BME280;60343;-32.030;115.880;2022-09-12T04:51:32;100855.34;;;25.11;48.45
72370;BME280;60343;-32.030;115.880;2022-09-12T04:54:02;100856.41;;;24.95;49.26
72370;BME280;60343;-32.030;115.880;2022-09-12T04:56:31;100857.50;;;24.99;48.65
72370;BME280;60343;-32.030;115.880;2022-09-12T04:59:00;100841.88;;;24.94;49.19
72370;BME280;60343;-32.030;115.880;2022-09-12T05:01:31;100850.09;;;24.57;49.27
72370;BME280;60343;-32.030;115.880;2022-09-12T05:04:02;100854.97;;;24.50;50.06
72370;BME280;60343;-32.030;115.880;2022-09-12T05:06:37;100841.66;;;24.64;50.61
72370;BME280;60343;-32.030;115.880;2022-09-12T05:09:07;100839.66;;;24.49;49.17
72370;BME280;60343;-32.030;115.880;2022-09-12T05:11:41;100837.94;;;24.38;49.87
72370;BME280;60343;-32.030;115.880;2022-09-12T05:14:10;100840.34;;;24.34;49.21
72370;BME280;60343;-32.030;115.880;2022-09-12T05:16:38;100835.63;;;24.25;49.58
72370;BME280;60343;-32.030;115.880;2022-09-12T05:19:06;100831.28;;;24.24;50.05
72370;BME280;60343;-32.030;115.880;2022-09-12T05:21:40;100831.28;;;24.24;50.16
72370;BME280;60343;-32.030;115.880;2022-09-12T05:24:10;100829.88;;;24.58;49.00
72370;BME280;60343;-32.030;115.880;2022-09-12T05:26:38;100831.28;;;24.71;48.19
72370;BME280;60343;-32.030;115.880;2022-09-12T05:29:06;100830.88;;;24.47;48.94
72370;BME280;60343;-32.030;115.880;2022-09-12T05:31:35;100816.78;;;24.70;47.87
72370;BME280;60343;-32.030;115.880;2022-09-12T05:34:03;100825.00;;;24.28;47.57
72370;BME280;60343;-32.030;115.880;2022-09-12T05:36:31;100827.47;;;23.71;49.54
72370;BME280;60343;-32.030;115.880;2022-09-12T05:39:06;100815.31;;;23.57;49.95
72370;BME280;60343;-32.030;115.880;2022-09-12T05:41:34;100821.63;;;23.58;49.32
72370;BME280;60343;-32.030;115.880;2022-09-12T05:44:04;100815.13;;;23.42;50.12
72370;BME280;60343;-32.030;115.880;2022-09-12T05:46:38;100810.34;;;23.54;50.48
72370;BME280;60343;-32.030;115.880;2022-09-12T05:49:11;100811.03;;;23.66;51.30
72370;BME280;60343;-32.030;115.880;2022-09-12T05:51:41;100809.84;;;23.35;52.28
72370;BME280;60343;-32.030;115.880;2022-09-12T05:54:17;100803.97;;;23.22;51.23
72370;BME280;60343;-32.030;115.880;2022-09-12T05:56:45;100803.44;;;23.25;51.58
72370;BME280;60343;-32.030;115.880;2022-09-12T05:59:15;100808.47;;;23.33;53.11
72370;BME280;60343;-32.030;115.880;2022-09-12T06:01:44;100806.75;;;23.48;53.78
72370;BME280;60343;-32.030;115.880;2022-09-12T06:04:13;100802.47;;;23.36;52.11
72370;BME280;60343;-32.030;115.880;2022-09-12T06:06:42;100806.69;;;23.43;54.08
72370;BME280;60343;-32.030;115.880;2022-09-12T06:09:17;100808.59;;;23.43;56.50
72370;BME280;60343;-32.030;115.880;2022-09-12T06:11:45;100824.75;;;23.01;57.17
72370;BME280;60343;-32.030;115.880;2022-09-12T06:14:15;100812.94;;;22.57;59.77
72370;BME280;60343;-32.030;115.880;2022-09-12T06:16:43;100816.88;;;22.28;60.97
72370;BME280;60343;-32.030;115.880;2022-09-12T06:19:14;100811.56;;;22.21;63.11
72370;BME280;60343;-32.030;115.880;2022-09-12T06:21:43;100815.22;;;22.27;62.95
72370;BME280;60343;-32.030;115.880;2022-09-12T06:24:17;100808.19;;;22.31;62.93
72370;BME280;60343;-32.030;115.880;2022-09-12T06:26:46;100806.81;;;22.50;62.77
72370;BME280;60343;-32.030;115.880;2022-09-12T06:29:15;100809.78;;;22.48;61.38
72370;BME280;60343;-32.030;115.880;2022-09-12T06:31:44;100813.91;;;22.67;61.08
72370;BME280;60343;-32.030;115.880;2022-09-12T06:34:14;100805.56;;;22.74;60.50
72370;BME280;60343;-32.030;115.880;2022-09-12T06:36:44;100804.06;;;22.66;59.46
72370;BME280;60343;-32.030;115.880;2022-09-12T06:39:19;100802.81;;;22.74;59.27
72370;BME280;60343;-32.030;115.880;2022-09-12T06:41:48;100790.19;;;22.68;58.75
72370;BME280;60343;-32.030;115.880;2022-09-12T06:44:18;100798.72;;;22.72;58.37
72370;BME280;60343;-32.030;115.880;2022-09-12T06:46:46;100791.09;;;22.57;58.96
72370;BME280;60343;-32.030;115.880;2022-09-12T06:49:14;100794.25;;;22.49;60.17
72370;BME280;60343;-32.030;115.880;2022-09-12T06:51:42;100788.41;;;22.23;59.96
72370;BME280;60343;-32.030;115.880;2022-09-12T06:54:18;100792.72;;;22.19;59.94
72370;BME280;60343;-32.030;115.880;2022-09-12T06:56:49;100792.00;;;22.07;60.86
72370;BME280;60343;-32.030;115.880;2022-09-12T06:59:17;100789.34;;;22.12;60.51
72370;BME280;60343;-32.030;115.880;2022-09-12T07:01:45;100776.72;;;22.45;59.67
72370;BME280;60343;-32.030;115.880;2022-09-12T07:04:13;100767.34;;;22.74;59.43
72370;BME280;60343;-32.030;115.880;2022-09-12T07:06:42;100770.19;;;22.84;59.51
72370;BME280;60343;-32.030;115.880;2022-09-12T07:09:17;100765.03;;;22.66;58.20
72370;BME280;60343;-32.030;115.880;2022-09-12T07:11:46;100759.50;;;22.61;58.91
72370;BME280;60343;-32.030;115.880;2022-09-12T07:14:14;100763.59;;;22.42;59.38
72370;BME280;60343;-32.030;115.880;2022-09-12T07:16:43;100752.56;;;22.32;59.74
72370;BME280;60343;-32.030;115.880;2022-09-12T07:19:11;100753.47;;;22.20;59.26
72370;BME280;60343;-32.030;115.880;2022-09-12T07:21:39;100750.91;;;22.14;61.04
72370;BME280;60343;-32.030;115.880;2022-09-12T07:24:10;100743.84;;;21.96;62.03
72370;BME280;60343;-32.030;115.880;2022-09-12T07:26:44;100755.38;;;21.87;61.09
72370;BME280;60343;-32.030;115.880;2022-09-12T07:29:14;100751.97;;;21.79;62.61
72370;BME280;60343;-32.030;115.880;2022-09-12T07:31:43;100755.88;;;21.67;65.07
72370;BME280;60343;-32.030;115.880;2022-09-12T07:34:11;100744.97;;;21.67;66.12
72370;BME280;60343;-32.030;115.880;2022-09-12T07:36:39;100745.13;;;21.60;65.72
72370;BME280;60343;-32.030;115.880;2022-09-12T07:39:07;100735.69;;;21.51;64.78
72370;BME280;60343;-32.030;115.880;2022-09-12T07:41:35;100744.72;;;21.52;64.58
72370;BME280;60343;-32.030;115.880;2022-09-12T07:44:09;100743.28;;;21.49;64.60
72370;BME280;60343;-32.030;115.880;2022-09-12T07:46:37;100746.44;;;21.58;65.44
72370;BME280;60343;-32.030;115.880;2022-09-12T07:49:05;100740.91;;;21.53;63.87
72370;BME280;60343;-32.030;115.880;2022-09-12T07:51:34;100740.22;;;21.46;64.62
72370;BME280;60343;-32.030;115.880;2022-09-12T07:54:05;100733.53;;;21.53;64.95
72370;BME280;60343;-32.030;115.880;2022-09-12T07:56:34;100728.59;;;21.50;66.00
72370;BME280;60343;-32.030;115.880;2022-09-12T07:59:07;100725.00;;;21.33;65.79
72370;BME280;60343;-32.030;115.880;2022-09-12T08:01:35;100725.75;;;21.28;65.59
72370;BME280;60343;-32.030;115.880;2022-09-12T08:04:03;100722.72;;;21.13;66.23
72370;BME280;60343;-32.030;115.880;2022-09-12T08:06:32;100726.53;;;21.12;67.26
72370;BME280;60343;-32.030;115.880;2022-09-12T08:09:00;100718.72;;;21.16;67.48
72370;BME280;60343;-32.030;115.880;2022-09-12T08:11:29;100723.94;;;21.34;67.21
72370;BME280;60343;-32.030;115.880;2022-09-12T08:13:57;100732.72;;;21.36;67.53
72370;BME280;60343;-32.030;115.880;2022-09-12T08:16:32;100735.66;;;21.34;66.66
72370;BME280;60343;-32.030;115.880;2022-09-12T08:19:01;100735.81;;;21.28;67.87
72370;BME280;60343;-32.030;115.880;2022-09-12T08:21:31;100740.47;;;21.27;68.50
72370;BME280;60343;-32.030;115.880;2022-09-12T08:24:01;100736.44;;;21.18;67.73
72370;BME280;60343;-32.030;115.880;2022-09-12T08:26:30;100739.69;;;21.15;67.79
72370;BME280;60343;-32.030;115.880;2022-09-12T08:28:58;100738.38;;;21.06;68.86
72370;BME280;60343;-32.030;115.880;2022-09-12T08:31:32;100733.19;;;21.05;68.20
72370;BME280;60343;-32.030;115.880;2022-09-12T08:34:00;100736.72;;;21.05;67.78
72370;BME280;60343;-32.030;115.880;2022-09-12T08:36:29;100727.22;;;21.08;67.89
72370;BME280;60343;-32.030;115.880;2022-09-12T08:38:59;100732.09;;;21.17;66.92
72370;BME280;60343;-32.030;115.880;2022-09-12T08:41:29;100721.44;;;21.16;67.20
72370;BME280;60343;-32.030;115.880;2022-09-12T08:44:14;100723.56;;;21.14;67.79
72370;BME280;60343;-32.030;115.880;2022-09-12T08:49:47;100730.22;;;21.06;68.56
72370;BME280;60343;-32.030;115.880;2022-09-12T08:52:24;100718.38;;;21.12;68.19
72370;BME280;60343;-32.030;115.880;2022-09-12T08:54:54;100717.66;;;21.05;67.81
72370;BME280;60343;-32.030;115.880;2022-09-12T08:57:23;100718.25;;;21.07;68.36
72370;BME280;60343;-32.030;115.880;2022-09-12T08:59:51;100715.25;;;20.92;68.63
72370;BME280;60343;-32.030;115.880;2022-09-12T09:02:44;100717.47;;;20.95;68.20
72370;BME280;60343;-32.030;115.880;2022-09-12T09:05:24;100718.34;;;20.84;69.22
72370;BME280;60343;-32.030;115.880;2022-09-12T09:08:10;100723.44;;;20.80;68.89
72370;BME280;60343;-32.030;115.880;2022-09-12T09:10:50;100729.03;;;20.74;70.11
72370;BME280;60343;-32.030;115.880;2022-09-12T09:13:32;100723.47;;;20.69;69.33
72370;BME280;60343;-32.030;115.880;2022-09-12T09:16:06;100724.63;;;20.73;68.80
72370;BME280;60343;-32.030;115.880;2022-09-12T09:18:45;100723.63;;;20.62;69.01
72370;BME280;60343;-32.030;115.880;2022-09-12T09:21:20;100719.34;;;20.66;69.40
72370;BME280;60343;-32.030;115.880;2022-09-12T09:23:54;100722.81;;;20.50;69.33
72370;BME280;60343;-32.030;115.880;2022-09-12T09:26:28;100736.19;;;20.51;69.38
72370;BME280;60343;-32.030;115.880;2022-09-12T09:29:03;100742.56;;;20.45;69.09
72370;BME280;60343;-32.030;115.880;2022-09-12T09:31:36;100746.59;;;20.43;69.32
72370;BME280;60343;-32.030;115.880;2022-09-12T09:34:14;100745.53;;;20.44;69.30
72370;BME280;60343;-32.030;115.880;2022-09-12T09:36:49;100750.13;;;20.43;70.38
72370;BME280;60343;-32.030;115.880;2022-09-12T09:39:24;100754.63;;;20.26;71.87
72370;BME280;60343;-32.030;115.880;2022-09-12T09:42:07;100750.59;;;20.17;73.00
72370;BME280;60343;-32.030;115.880;2022-09-12T09:44:37;100755.91;;;20.00;74.41
72370;BME280;60343;-32.030;115.880;2022-09-12T09:47:08;100761.47;;;19.94;73.98
72370;BME280;60343;-32.030;115.880;2022-09-12T09:49:43;100767.81;;;19.76;74.89
72370;BME280;60343;-32.030;115.880;2022-09-12T09:52:23;100769.53;;;19.59;77.40
72370;BME280;60343;-32.030;115.880;2022-09-12T09:54:55;100778.31;;;19.61;76.96
72370;BME280;60343;-32.030;115.880;2022-09-12T09:57:38;100779.66;;;19.52;77.40
72370;BME280;60343;-32.030;115.880;2022-09-12T10:00:25;100778.28;;;19.31;80.24
72370;BME280;60343;-32.030;115.880;2022-09-12T10:05:53;100770.88;;;19.08;80.82
72370;BME280;60343;-32.030;115.880;2022-09-12T10:08:24;100767.50;;;18.95;82.04
72370;BME280;60343;-32.030;115.880;2022-09-12T10:10:57;100758.09;;;18.79;83.30
72370;BME280;60343;-32.030;115.880;2022-09-12T10:13:34;100754.56;;;18.78;82.47
72370;BME280;60343;-32.030;115.880;2022-09-12T10:16:05;100753.56;;;18.73;82.08
72370;BME280;60343;-32.030;115.880;2022-09-12T10:18:38;100747.03;;;18.62;83.53
72370;BME280;60343;-32.030;115.880;2022-09-12T10:21:30;100749.00;;;18.55;82.31
72370;BME280;60343;-32.030;115.880;2022-09-12T10:24:02;100745.28;;;18.50;81.78
72370;BME280;60343;-32.030;115.880;2022-09-12T10:26:38;100747.75;;;18.51;82.68
72370;BME280;60343;-32.030;115.880;2022-09-12T10:29:15;100753.78;;;18.53;83.82
72370;BME280;60343;-32.030;115.880;2022-09-12T10:31:48;100746.31;;;18.49;84.37
72370;BME280;60343;-32.030;115.880;2022-09-12T10:34:29;100750.28;;;18.46;84.38
72370;BME280;60343;-32.030;115.880;2022-09-12T10:37:08;100750.91;;;18.48;84.41
72370;BME280;60343;-32.030;115.880;2022-09-12T10:39:38;100751.38;;;18.45;84.44
72370;BME280;60343;-32.030;115.880;2022-09-12T10:42:09;100754.09;;;18.45;84.58
72370;BME280;60343;-32.030;115.880;2022-09-12T10:44:52;100747.59;;;18.46;84.34
72370;BME280;60343;-32.030;115.880;2022-09-12T10:47:29;100739.44;;;18.46;84.20
72370;BME280;60343;-32.030;115.880;2022-09-12T10:50:19;100743.47;;;18.43;84.88
72370;BME280;60343;-32.030;115.880;2022-09-12T10:52:53;100737.22;;;18.43;85.11
72370;BME280;60343;-32.030;115.880;2022-09-12T10:55:27;100743.34;;;18.57;84.90
72370;BME280;60343;-32.030;115.880;2022-09-12T10:58:14;100732.06;;;18.60;85.17
72370;BME280;60343;-32.030;115.880;2022-09-12T11:00:53;100745.34;;;18.61;84.98
72370;BME280;60343;-32.030;115.880;2022-09-12T11:03:40;100741.91;;;18.72;85.29
72370;BME280;60343;-32.030;115.880;2022-09-12T11:06:17;100740.69;;;18.68;85.54
72370;BME280;60343;-32.030;115.880;2022-09-12T11:09:05;100744.31;;;18.62;85.66
72370;BME280;60343;-32.030;115.880;2022-09-12T11:11:48;100744.94;;;18.64;85.50
72370;BME280;60343;-32.030;115.880;2022-09-12T11:14:31;100748.16;;;18.73;84.02
72370;BME280;60343;-32.030;115.880;2022-09-12T11:17:12;100752.53;;;18.74;83.84
72370;BME280;60343;-32.030;115.880;2022-09-12T11:19:56;100746.41;;;18.78;83.25
72370;BME280;60343;-32.030;115.880;2022-09-12T11:22:39;100729.53;;;18.76;83.60
72370;BME280;60343;-32.030;115.880;2022-09-12T11:25:27;100719.75;;;18.57;84.24
72370;BME280;60343;-32.030;115.880;2022-09-12T11:28:13;100721.56;;;18.45;83.26
72370;BME280;60343;-32.030;115.880;2022-09-12T11:30:54;100724.34;;;18.38;83.54
72370;BME280;60343;-32.030;115.880;2022-09-12T11:33:40;100736.59;;;18.23;83.53
72370;BME280;60343;-32.030;115.880;2022-09-12T11:36:21;100734.13;;;18.39;83.25
72370;BME280;60343;-32.030;115.880;2022-09-12T11:39:02;100732.69;;;18.19;84.32
72370;BME280;60343;-32.030;115.880;2022-09-12T11:41:42;100722.81;;;18.24;84.57
72370;BME280;60343;-32.030;115.880;2022-09-12T11:44:17;100721.53;;;18.27;83.78
72370;BME280;60343;-32.030;115.880;2022-09-12T11:46:48;100705.72;;;18.24;83.91
72370;BME280;60343;-32.030;115.880;2022-09-12T11:49:30;100712.19;;;18.23;83.44
72370;BME280;60343;-32.030;115.880;2022-09-12T11:52:03;100709.56;;;18.16;82.65
72370;BME280;60343;-32.030;115.880;2022-09-12T11:54:36;100704.13;;;18.16;82.92
72370;BME280;60343;-32.030;115.880;2022-09-12T11:57:16;100694.22;;;18.10;82.55
72370;BME280;60343;-32.030;115.880;2022-09-12T11:59:50;100695.06;;;18.11;83.16
72370;BME280;60343;-32.030;115.880;2022-09-12T12:02:25;100702.94;;;18.12;82.74
72370;BME280;60343;-32.030;115.880;2022-09-12T12:05:04;100702.56;;;18.09;82.74
72370;BME280;60343;-32.030;115.880;2022-09-12T12:07:45;100694.66;;;18.07;82.64
72370;BME280;60343;-32.030;115.880;2022-09-12T12:10:32;100685.94;;;18.05;81.31
72370;BME280;60343;-32.030;115.880;2022-09-12T12:13:15;100686.75;;;18.06;82.17
72370;BME280;60343;-32.030;115.880;2022-09-12T12:15:47;100682.75;;;18.08;81.93
72370;BME280;60343;-32.030;115.880;2022-09-12T12:18:18;100692.34;;;18.11;81.73
72370;BME280;60343;-32.030;115.880;2022-09-12T12:20:49;100682.59;;;18.03;81.53
72370;BME280;60343;-32.030;115.880;2022-09-12T12:23:26;100669.38;;;17.95;82.16
72370;BME280;60343;-32.030;115.880;2022-09-12T12:25:56;100664.84;;;17.89;83.01
72370;BME280;60343;-32.030;115.880;2022-09-12T12:31:26;100644.53;;;17.80;82.23
72370;BME280;60343;-32.030;115.880;2022-09-12T12:36:41;100637.50;;;17.72;82.55
72370;BME280;60343;-32.030;115.880;2022-09-12T12:42:08;100631.66;;;17.75;83.45
72370;BME280;60343;-32.030;115.880;2022-09-12T12:44:50;100629.16;;;17.74;82.92
72370;BME280;60343;-32.030;115.880;2022-09-12T12:47:29;100621.72;;;17.69;83.43
72370;BME280;60343;-32.030;115.880;2022-09-12T12:50:02;100613.44;;;17.64;83.47
72370;BME280;60343;-32.030;115.880;2022-09-12T12:52:40;100621.97;;;17.61;83.70
72370;BME280;60343;-32.030;115.880;2022-09-12T12:55:18;100622.88;;;17.55;85.07
72370;BME280;60343;-32.030;115.880;2022-09-12T12:57:50;100617.66;;;17.60;85.11
72370;BME280;60343;-32.030;115.880;2022-09-12T13:00:35;100598.50;;;17.55;85.27
72370;BME280;60343;-32.030;115.880;2022-09-12T13:03:24;100592.63;;;17.58;84.70
72370;BME280;60343;-32.030;115.880;2022-09-12T13:05:59;100592.00;;;17.56;85.39
72370;BME280;60343;-32.030;115.880;2022-09-12T13:08:30;100597.56;;;17.43;85.94
72370;BME280;60343;-32.030;115.880;2022-09-12T13:11:00;100588.56;;;17.49;85.00